sensor_id;sensor_type;location;lat;lon;timestamp;pressure;altitude;pressure_sealevel;temperature;humidity
68594;BME280;55563;52.416;13.548;2023-01-29T00:00:33;102331.81;;;-1.54;100.00
68594;BME280;55563;52.416;13.548;2023-01-29T00:02:35;102337.09;;;-1.55;100.00
68594;BME280;55563;52.416;13.548;2023-01-29T00:04:36;102324.06;;;-1.54;100.00
68594;BME280;55563;52.416;13.548;2023-01-29T00:06:37;102330.44;;;-1.58;100.00
68594;BME280;55563;52.416;13.548;2023-01-29T00:08:38;102325.44;;;-1.59;100.00
68594;BME280;55563;52.416;13.548;2023-01-29T00:10:39;102317.69;;;-1.59;100.00
68594;BME280;55563;52.416;13.548;2023-01-29T00:12:40;102314.31;;;-1.60;100.00
68594;BME280;55563;52.416;13.548;2023-01-29T00:14:40;102313.63;;;-1.62;100.00
68594;BME280;55563;52.416;13.548;2023-01-29T00:16:41;102308.03;;;-1.57;100.00
68594;BME280;55563;52.416;13.548;2023-01-29T00:18:42;102303.03;;;-1.59;100.00
68594;BME280;55563;52.416;13.548;2023-01-29T00:20:43;102297.19;;;-1.61;100.00
68594;BME280;55563;52.416;13.548;2023-01-29T00:22:43;102295.97;;;-1.66;100.00
68594;BME280;55563;52.416;13.548;2023-01-29T00:24:44;102305.63;;;-1.59;100.00
68594;BME280;55563;52.416;13.548;2023-01-29T00:26:45;102304.66;;;-1.58;100.00
68594;BME280;55563;52.416;13.548;2023-01-29T00:28:46;102302.06;;;-1.58;100.00
68594;BME280;55563;52.416;13.548;2023-01-29T00:30:46;102305.22;;;-1.54;100.00
68594;BME280;55563;52.416;13.548;2023-01-29T00:32:47;102301.94;;;-1.56;100.00
68594;BME280;55563;52.416;13.548;2023-01-29T00:34:48;102300.19;;;-1.56;100.00
68594;BME280;55563;52.416;13.548;2023-01-29T00:36:50;102288.75;;;-1.53;100.00
68594;BME280;55563;52.416;13.548;2023-01-29T00:38:55;102294.47;;;-1.50;100.00
68594;BME280;55563;52.416;13.548;2023-01-29T00:41:04;102284.56;;;-1.45;100.00
68594;BME280;55563;52.416;13.548;2023-01-29T00:43:25;102286.06;;;-1.52;100.00
68594;BME280;55563;52.416;13.548;2023-01-29T00:45:46;102283.59;;;-1.53;100.00
68594;BME280;55563;52.416;13.548;2023-01-29T00:47:46;102271.94;;;-1.57;100.00
68594;BME280;55563;52.416;13.548;2023-01-29T00:49:47;102263.97;;;-1.54;100.00
68594;BME280;55563;52.416;13.548;2023-01-29T00:51:48;102265.97;;;-1.58;100.00
68594;BME280;55563;52.416;13.548;2023-01-29T00:54:08;102256.91;;;-1.62;100.00
68594;BME280;55563;52.416;13.548;2023-01-29T00:56:09;102262.47;;;-1.57;100.00
68594;BME280;55563;52.416;13.548;2023-01-29T00:58:10;102262.19;;;-1.54;100.00
68594;BME280;55563;52.416;13.548;2023-01-29T01:00:14;102264.34;;;-1.49;100.00
68594;BME280;55563;52.416;13.548;2023-01-29T01:02:16;102261.63;;;-1.48;100.00
68594;BME280;55563;52.416;13.548;2023-01-29T01:04:37;102260.81;;;-1.48;100.00
68594;BME280;55563;52.416;13.548;2023-01-29T01:06:39;102268.28;;;-1.45;100.00
68594;BME280;55563;52.416;13.548;2023-01-29T01:08:41;102274.09;;;-1.43;100.00
68594;BME280;55563;52.416;13.548;2023-01-29T01:11:04;102271.25;;;-1.40;100.00
68594;BME280;55563;52.416;13.548;2023-01-29T01:13:06;102275.47;;;-1.39;100.00
68594;BME280;55563;52.416;13.548;2023-01-29T01:15:07;102272.63;;;-1.46;100.00
68594;BME280;55563;52.416;13.548;2023-01-29T01:17:08;102272.75;;;-1.47;100.00
68594;BME280;55563;52.416;13.548;2023-01-29T01:19:09;102268.94;;;-1.43;100.00
68594;BME280;55563;52.416;13.548;2023-01-29T01:21:10;102262.44;;;-1.47;100.00
68594;BME280;55563;52.416;13.548;2023-01-29T01:23:10;102280.47;;;-1.47;100.00
68594;BME280;55563;52.416;13.548;2023-01-29T01:25:11;102278.44;;;-1.44;100.00
68594;BME280;55563;52.416;13.548;2023-01-29T01:27:12;102275.72;;;-1.42;100.00
68594;BME280;55563;52.416;13.548;2023-01-29T01:29:13;102269.91;;;-1.44;100.00
68594;BME280;55563;52.416;13.548;2023-01-29T01:31:14;102258.19;;;-1.39;100.00
68594;BME280;55563;52.416;13.548;2023-01-29T01:33:14;102269.63;;;-1.41;100.00
68594;BME280;55563;52.416;13.548;2023-01-29T01:35:16;102268.81;;;-1.42;100.00
68594;BME280;55563;52.416;13.548;2023-01-29T01:37:17;102267.03;;;-1.41;100.00
68594;BME280;55563;52.416;13.548;2023-01-29T01:39:18;102279.38;;;-1.35;100.00
68594;BME280;55563;52.416;13.548;2023-01-29T01:41:20;102273.97;;;-1.42;100.00
68594;BME280;55563;52.416;13.548;2023-01-29T01:43:22;102269.50;;;-1.40;100.00
68594;BME280;55563;52.416;13.548;2023-01-29T01:45:32;102273.41;;;-1.36;100.00
68594;BME280;55563;52.416;13.548;2023-01-29T01:47:38;102269.06;;;-1.35;100.00
68594;BME280;55563;52.416;13.548;2023-01-29T01:49:41;102265.81;;;-1.37;100.00
68594;BME280;55563;52.416;13.548;2023-01-29T01:51:42;102269.59;;;-1.32;100.00
68594;BME280;55563;52.416;13.548;2023-01-29T01:53:55;102264.97;;;-1.28;100.00
68594;BME280;55563;52.416;13.548;2023-01-29T01:56:01;102279.91;;;-1.32;100.00
68594;BME280;55563;52.416;13.548;2023-01-29T01:58:09;102272.47;;;-1.35;100.00
68594;BME280;55563;52.416;13.548;2023-01-29T02:00:14;102266.88;;;-1.30;100.00
68594;BME280;55563;52.416;13.548;2023-01-29T02:02:16;102273.00;;;-1.31;100.00
68594;BME280;55563;52.416;13.548;2023-01-29T02:04:45;102275.69;;;-1.33;100.00
68594;BME280;55563;52.416;13.548;2023-01-29T02:07:10;102263.91;;;-1.35;100.00
68594;BME280;55563;52.416;13.548;2023-01-29T02:09:38;102257.66;;;-1.33;100.00
68594;BME280;55563;52.416;13.548;2023-01-29T02:11:40;102260.22;;;-1.33;100.00
68594;BME280;55563;52.416;13.548;2023-01-29T02:13:41;102262.16;;;-1.35;100.00
68594;BME280;55563;52.416;13.548;2023-01-29T02:15:42;102256.31;;;-1.37;100.00
68594;BME280;55563;52.416;13.548;2023-01-29T02:17:46;102249.81;;;-1.41;100.00
68594;BME280;55563;52.416;13.548;2023-01-29T02:28:06;102253.84;;;-1.38;100.00
68594;BME280;55563;52.416;13.548;2023-01-29T02:30:39;102254.41;;;-1.35;100.00
68594;BME280;55563;52.416;13.548;2023-01-29T02:33:03;102238.78;;;-1.33;100.00
68594;BME280;55563;52.416;13.548;2023-01-29T02:35:29;102235.25;;;-1.32;100.00
68594;BME280;55563;52.416;13.548;2023-01-29T02:37:37;102238.22;;;-1.27;100.00
68594;BME280;55563;52.416;13.548;2023-01-29T02:40:02;102242.56;;;-1.27;100.00
68594;BME280;55563;52.416;13.548;2023-01-29T02:42:12;102231.31;;;-1.26;100.00
68594;BME280;55563;52.416;13.548;2023-01-29T02:44:23;102238.47;;;-1.20;100.00
68594;BME280;55563;52.416;13.548;2023-01-29T02:46:34;102249.59;;;-1.20;100.00
68594;BME280;55563;52.416;13.548;2023-01-29T02:48:43;102244.72;;;-1.23;100.00
68594;BME280;55563;52.416;13.548;2023-01-29T02:51:07;102244.72;;;-1.23;100.00
68594;BME280;55563;52.416;13.548;2023-01-29T02:53:14;102237.13;;;-1.24;100.00
68594;BME280;55563;52.416;13.548;2023-01-29T02:55:21;102228.94;;;-1.20;100.00
68594;BME280;55563;52.416;13.548;2023-01-29T02:57:26;102224.34;;;-1.16;100.00
68594;BME280;55563;52.416;13.548;2023-01-29T02:59:34;102224.19;;;-1.15;100.00
68594;BME280;55563;52.416;13.548;2023-01-29T03:01:42;102219.44;;;-1.19;100.00
68594;BME280;55563;52.416;13.548;2023-01-29T03:03:50;102219.63;;;-1.21;100.00
68594;BME280;55563;52.416;13.548;2023-01-29T03:06:14;102212.69;;;-1.20;100.00
68594;BME280;55563;52.416;13.548;2023-01-29T03:08:22;102207.38;;;-1.19;100.00
68594;BME280;55563;52.416;13.548;2023-01-29T03:10:41;102207.38;;;-1.19;100.00
68594;BME280;55563;52.416;13.548;2023-01-29T03:12:46;102218.63;;;-1.20;100.00
68594;BME280;55563;52.416;13.548;2023-01-29T03:14:51;102217.84;;;-1.20;100.00
68594;BME280;55563;52.416;13.548;2023-01-29T03:17:13;102221.75;;;-1.16;100.00
68594;BME280;55563;52.416;13.548;2023-01-29T03:19:25;102212.38;;;-1.17;100.00
68594;BME280;55563;52.416;13.548;2023-01-29T03:21:33;102209.69;;;-1.16;100.00
68594;BME280;55563;52.416;13.548;2023-01-29T03:23:52;102201.13;;;-1.16;100.00
68594;BME280;55563;52.416;13.548;2023-01-29T03:26:16;102205.34;;;-1.15;100.00
68594;BME280;55563;52.416;13.548;2023-01-29T03:28:40;102199.19;;;-1.14;100.00
68594;BME280;55563;52.416;13.548;2023-01-29T03:31:05;102204.09;;;-1.11;100.00
68594;BME280;55563;52.416;13.548;2023-01-29T03:33:34;102203.94;;;-1.10;100.00
68594;BME280;55563;52.416;13.548;2023-01-29T03:35:39;102208.44;;;-1.12;100.00
68594;BME280;55563;52.416;13.548;2023-01-29T03:37:44;102203.72;;;-1.16;100.00
68594;BME280;55563;52.416;13.548;2023-01-29T03:39:45;102200.69;;;-1.12;100.00
68594;BME280;55563;52.416;13.548;2023-01-29T03:41:54;102186.31;;;-1.14;100.00
68594;BME280;55563;52.416;13.548;2023-01-29T03:44:13;102189.69;;;-1.14;100.00
68594;BME280;55563;52.416;13.548;2023-01-29T03:48:39;102185.66;;;-1.16;100.00
68594;BME280;55563;52.416;13.548;2023-01-29T03:51:37;102186.03;;;-1.11;100.00
68594;BME280;55563;52.416;13.548;2023-01-29T03:55:41;102179.38;;;-1.14;100.00
68594;BME280;55563;52.416;13.548;2023-01-29T04:00:17;102172.88;;;-1.18;100.00
68594;BME280;55563;52.416;13.548;2023-01-29T04:02:35;102160.50;;;-1.14;100.00
68594;BME280;55563;52.416;13.548;2023-01-29T04:04:44;102148.16;;;-1.11;100.00
68594;BME280;55563;52.416;13.548;2023-01-29T04:06:48;102142.44;;;-1.14;100.00
68594;BME280;55563;52.416;13.548;2023-01-29T04:09:06;102137.16;;;-1.13;100.00
68594;BME280;55563;52.416;13.548;2023-01-29T04:11:15;102144.06;;;-1.13;100.00
68594;BME280;55563;52.416;13.548;2023-01-29T04:13:19;102145.72;;;-1.12;100.00
68594;BME280;55563;52.416;13.548;2023-01-29T04:15:21;102140.03;;;-1.16;100.00
68594;BME280;55563;52.416;13.548;2023-01-29T04:17:29;102139.72;;;-1.13;100.00
68594;BME280;55563;52.416;13.548;2023-01-29T04:19:38;102142.81;;;-1.09;100.00
68594;BME280;55563;52.416;13.548;2023-01-29T04:21:39;102132.50;;;-1.09;100.00
68594;BME280;55563;52.416;13.548;2023-01-29T04:23:40;102125.38;;;-1.15;100.00
68594;BME280;55563;52.416;13.548;2023-01-29T04:25:45;102124.25;;;-1.13;100.00
68594;BME280;55563;52.416;13.548;2023-01-29T04:28:16;102114.31;;;-1.08;100.00
68594;BME280;55563;52.416;13.548;2023-01-29T04:30:40;102115.00;;;-1.06;100.00
68594;BME280;55563;52.416;13.548;2023-01-29T04:32:56;102105.91;;;-1.10;100.00
68594;BME280;55563;52.416;13.548;2023-01-29T04:37:42;102102.50;;;-1.10;100.00
68594;BME280;55563;52.416;13.548;2023-01-29T04:39:53;102093.69;;;-1.08;100.00
68594;BME280;55563;52.416;13.548;2023-01-29T04:42:05;102095.81;;;-1.03;100.00
68594;BME280;55563;52.416;13.548;2023-01-29T04:46:49;102088.88;;;-1.03;100.00
68594;BME280;55563;52.416;13.548;2023-01-29T04:51:18;102091.47;;;-1.03;100.00
68594;BME280;55563;52.416;13.548;2023-01-29T04:53:32;102090.88;;;-0.97;100.00
68594;BME280;55563;52.416;13.548;2023-01-29T04:55:57;102091.97;;;-0.99;100.00
68594;BME280;55563;52.416;13.548;2023-01-29T05:00:25;102101.09;;;-1.05;100.00
68594;BME280;55563;52.416;13.548;2023-01-29T05:02:28;102101.47;;;-1.00;100.00
68594;BME280;55563;52.416;13.548;2023-01-29T05:04:31;102104.06;;;-1.00;100.00
68594;BME280;55563;52.416;13.548;2023-01-29T05:06:34;102104.88;;;-0.99;100.00
68594;BME280;55563;52.416;13.548;2023-01-29T05:08:37;102105.56;;;-0.97;100.00
68594;BME280;55563;52.416;13.548;2023-01-29T05:10:38;102098.91;;;-1.00;100.00
68594;BME280;55563;52.416;13.548;2023-01-29T05:12:40;102105.69;;;-0.99;100.00
68594;BME280;55563;52.416;13.548;2023-01-29T05:14:44;102100.53;;;-0.99;100.00
68594;BME280;55563;52.416;13.548;2023-01-29T05:16:50;102108.28;;;-0.99;100.00
68594;BME280;55563;52.416;13.548;2023-01-29T05:18:52;102110.03;;;-0.99;100.00
68594;BME280;55563;52.416;13.548;2023-01-29T05:20:55;102102.31;;;-0.99;100.00
68594;BME280;55563;52.416;13.548;2023-01-29T05:22:56;102112.19;;;-0.95;100.00
68594;BME280;55563;52.416;13.548;2023-01-29T05:24:57;102112.84;;;-0.93;100.00
68594;BME280;55563;52.416;13.548;2023-01-29T05:26:58;102111.09;;;-0.92;100.00
68594;BME280;55563;52.416;13.548;2023-01-29T05:29:19;102111.38;;;-0.95;100.00
68594;BME280;55563;52.416;13.548;2023-01-29T05:31:20;102115.19;;;-0.99;100.00
68594;BME280;55563;52.416;13.548;2023-01-29T05:33:29;102122.28;;;-1.01;100.00
68594;BME280;55563;52.416;13.548;2023-01-29T05:35:30;102126.19;;;-0.97;100.00
68594;BME280;55563;52.416;13.548;2023-01-29T05:37:31;102128.91;;;-0.99;100.00
68594;BME280;55563;52.416;13.548;2023-01-29T05:39:32;102127.88;;;-1.06;100.00
68594;BME280;55563;52.416;13.548;2023-01-29T05:41:33;102126.63;;;-1.02;100.00
68594;BME280;55563;52.416;13.548;2023-01-29T05:43:33;102132.19;;;-0.97;100.00
68594;BME280;55563;52.416;13.548;2023-01-29T05:45:34;102136.97;;;-1.02;100.00
68594;BME280;55563;52.416;13.548;2023-01-29T05:47:35;102127.28;;;-1.00;100.00
68594;BME280;55563;52.416;13.548;2023-01-29T05:49:36;102129.59;;;-0.97;100.00
68594;BME280;55563;52.416;13.548;2023-01-29T05:51:36;102119.84;;;-1.03;100.00
68594;BME280;55563;52.416;13.548;2023-01-29T05:53:37;102125.00;;;-1.03;100.00
68594;BME280;55563;52.416;13.548;2023-01-29T05:55:38;102126.78;;;-1.03;100.00
68594;BME280;55563;52.416;13.548;2023-01-29T05:57:39;102129.50;;;-1.05;100.00
68594;BME280;55563;52.416;13.548;2023-01-29T05:59:40;102138.72;;;-1.02;100.00
68594;BME280;55563;52.416;13.548;2023-01-29T06:01:41;102145.50;;;-1.01;100.00
68594;BME280;55563;52.416;13.548;2023-01-29T06:03:42;102145.66;;;-1.03;100.00
68594;BME280;55563;52.416;13.548;2023-01-29T06:05:43;102147.94;;;-1.00;100.00
68594;BME280;55563;52.416;13.548;2023-01-29T06:07:43;102151.63;;;-1.02;100.00
68594;BME280;55563;52.416;13.548;2023-01-29T06:09:44;102151.19;;;-0.98;100.00
68594;BME280;55563;52.416;13.548;2023-01-29T06:11:45;102161.06;;;-0.93;100.00
68594;BME280;55563;52.416;13.548;2023-01-29T06:13:46;102153.63;;;-0.96;100.00
68594;BME280;55563;52.416;13.548;2023-01-29T06:15:47;102161.38;;;-0.96;100.00
68594;BME280;55563;52.416;13.548;2023-01-29T06:17:48;102153.25;;;-1.01;100.00
68594;BME280;55563;52.416;13.548;2023-01-29T06:19:48;102162.16;;;-0.96;100.00
68594;BME280;55563;52.416;13.548;2023-01-29T06:21:49;102166.22;;;-0.93;100.00
68594;BME280;55563;52.416;13.548;2023-01-29T06:23:51;102163.41;;;-1.00;100.00
68594;BME280;55563;52.416;13.548;2023-01-29T06:25:53;102155.03;;;-1.02;100.00
68594;BME280;55563;52.416;13.548;2023-01-29T06:27:53;102157.59;;;-1.02;100.00
68594;BME280;55563;52.416;13.548;2023-01-29T06:29:54;102150.25;;;-0.97;100.00
68594;BME280;55563;52.416;13.548;2023-01-29T06:31:55;102160.41;;;-0.95;100.00
68594;BME280;55563;52.416;13.548;2023-01-29T06:33:55;102158.78;;;-0.96;100.00
68594;BME280;55563;52.416;13.548;2023-01-29T06:35:58;102155.78;;;-0.92;100.00
68594;BME280;55563;52.416;13.548;2023-01-29T06:37:59;102153.03;;;-0.90;100.00
68594;BME280;55563;52.416;13.548;2023-01-29T06:40:00;102151.00;;;-0.86;100.00
68594;BME280;55563;52.416;13.548;2023-01-29T06:42:01;102150.19;;;-0.87;100.00
68594;BME280;55563;52.416;13.548;2023-01-29T06:44:02;102157.75;;;-0.85;100.00
68594;BME280;55563;52.416;13.548;2023-01-29T06:46:02;102157.75;;;-0.85;100.00
68594;BME280;55563;52.416;13.548;2023-01-29T06:48:03;102153.03;;;-0.90;100.00
68594;BME280;55563;52.416;13.548;2023-01-29T06:50:04;102156.94;;;-0.86;100.00
68594;BME280;55563;52.416;13.548;2023-01-29T06:52:05;102158.56;;;-0.85;100.00
68594;BME280;55563;52.416;13.548;2023-01-29T06:54:06;102161.81;;;-0.83;100.00
68594;BME280;55563;52.416;13.548;2023-01-29T06:56:07;102163.47;;;-0.82;100.00
68594;BME280;55563;52.416;13.548;2023-01-29T06:58:10;102148.75;;;-0.81;100.00
68594;BME280;55563;52.416;13.548;2023-01-29T07:00:11;102161.38;;;-0.78;100.00
68594;BME280;55563;52.416;13.548;2023-01-29T07:02:12;102160.19;;;-0.84;100.00
68594;BME280;55563;52.416;13.548;2023-01-29T07:04:13;102160.72;;;-0.80;100.00
68594;BME280;55563;52.416;13.548;2023-01-29T07:06:14;102161.75;;;-0.73;100.00
68594;BME280;55563;52.416;13.548;2023-01-29T07:08:15;102167.19;;;-0.76;100.00
68594;BME280;55563;52.416;13.548;2023-01-29T07:10:15;102158.81;;;-0.78;100.00
68594;BME280;55563;52.416;13.548;2023-01-29T07:12:16;102160.19;;;-0.84;100.00
68594;BME280;55563;52.416;13.548;2023-01-29T07:14:17;102162.19;;;-0.78;100.00
68594;BME280;55563;52.416;13.548;2023-01-29T07:16:17;102162.03;;;-0.76;100.00
68594;BME280;55563;52.416;13.548;2023-01-29T07:18:18;102153.13;;;-0.82;100.00
68594;BME280;55563;52.416;13.548;2023-01-29T07:20:19;102161.09;;;-0.75;100.00
68594;BME280;55563;52.416;13.548;2023-01-29T07:22:19;102149.66;;;-0.73;100.00
68594;BME280;55563;52.416;13.548;2023-01-29T07:24:20;102156.59;;;-0.73;100.00
68594;BME280;55563;52.416;13.548;2023-01-29T07:26:21;102146.09;;;-0.72;100.00
68594;BME280;55563;52.416;13.548;2023-01-29T07:28:22;102135.78;;;-0.72;100.00
68594;BME280;55563;52.416;13.548;2023-01-29T07:30:23;102136.31;;;-0.68;100.00
68594;BME280;55563;52.416;13.548;2023-01-29T07:32:23;102153.78;;;-0.62;100.00
68594;BME280;55563;52.416;13.548;2023-01-29T07:34:24;102150.84;;;-0.67;100.00
68594;BME280;55563;52.416;13.548;2023-01-29T07:36:25;102161.81;;;-0.65;100.00
68594;BME280;55563;52.416;13.548;2023-01-29T07:38:26;102154.22;;;-0.67;100.00
68594;BME280;55563;52.416;13.548;2023-01-29T07:40:27;102161.53;;;-0.62;100.00
68594;BME280;55563;52.416;13.548;2023-01-29T07:42:27;102153.00;;;-0.63;100.00
68594;BME280;55563;52.416;13.548;2023-01-29T07:44:28;102153.72;;;-0.70;100.00
68594;BME280;55563;52.416;13.548;2023-01-29T07:46:29;102143.69;;;-0.73;100.00
68594;BME280;55563;52.416;13.548;2023-01-29T07:48:29;102137.28;;;-0.69;100.00
68594;BME280;55563;52.416;13.548;2023-01-29T07:50:31;102130.03;;;-0.66;100.00
68594;BME280;55563;52.416;13.548;2023-01-29T07:52:32;102139.91;;;-0.61;100.00
68594;BME280;55563;52.416;13.548;2023-01-29T07:54:34;102136.38;;;-0.60;100.00
68594;BME280;55563;52.416;13.548;2023-01-29T07:56:34;102127.97;;;-0.62;100.00
68594;BME280;55563;52.416;13.548;2023-01-29T07:58:35;102120.88;;;-0.60;100.00
68594;BME280;55563;52.416;13.548;2023-01-29T08:00:36;102109.28;;;-0.56;100.00
68594;BME280;55563;52.416;13.548;2023-01-29T08:02:37;102104.31;;;-0.58;100.00
68594;BME280;55563;52.416;13.548;2023-01-29T08:04:37;102116.09;;;-0.55;100.00
68594;BME280;55563;52.416;13.548;2023-01-29T08:06:38;102118.81;;;-0.57;100.00
68594;BME280;55563;52.416;13.548;2023-01-29T08:08:39;102119.34;;;-0.53;100.00
68594;BME280;55563;52.416;13.548;2023-01-29T08:10:40;102129.69;;;-0.53;100.00
68594;BME280;55563;52.416;13.548;2023-01-29T08:12:41;102121.13;;;-0.54;100.00
68594;BME280;55563;52.416;13.548;2023-01-29T08:16:29;102116.78;;;-0.53;100.00
68594;BME280;55563;52.416;13.548;2023-01-29T08:18:22;102114.38;;;-0.47;100.00
68594;BME280;55563;52.416;13.548;2023-01-29T08:20:24;102109.53;;;-0.50;100.00
68594;BME280;55563;52.416;13.548;2023-01-29T08:22:24;102111.97;;;-0.48;100.00
68594;BME280;55563;52.416;13.548;2023-01-29T08:24:25;102118.72;;;-0.47;100.00
68594;BME280;55563;52.416;13.548;2023-01-29T08:26:26;102118.44;;;-0.44;100.00
68594;BME280;55563;52.416;13.548;2023-01-29T08:28:27;102123.09;;;-0.48;100.00
68594;BME280;55563;52.416;13.548;2023-01-29T08:30:30;102119.25;;;-0.43;100.00
68594;BME280;55563;52.416;13.548;2023-01-29T08:32:31;102120.66;;;-0.49;100.00
68594;BME280;55563;52.416;13.548;2023-01-29T08:34:32;102112.66;;;-0.38;100.00
68594;BME280;55563;52.416;13.548;2023-01-29T08:36:33;102113.66;;;-0.39;100.00
68594;BME280;55563;52.416;13.548;2023-01-29T08:38:34;102120.59;;;-0.39;100.00
68594;BME280;55563;52.416;13.548;2023-01-29T08:40:35;102115.78;;;-0.34;100.00
68594;BME280;55563;52.416;13.548;2023-01-29T08:42:36;102107.72;;;-0.31;100.00
68594;BME280;55563;52.416;13.548;2023-01-29T08:44:37;102101.16;;;-0.26;100.00
68594;BME280;55563;52.416;13.548;2023-01-29T08:46:37;102115.47;;;-0.31;100.00
68594;BME280;55563;52.416;13.548;2023-01-29T08:48:40;102114.78;;;-0.33;100.00
68594;BME280;55563;52.416;13.548;2023-01-29T08:50:41;102115.47;;;-0.31;100.00
68594;BME280;55563;52.416;13.548;2023-01-29T08:52:42;102121.31;;;-0.29;100.00
68594;BME280;55563;52.416;13.548;2023-01-29T08:54:43;102122.34;;;-0.40;100.00
68594;BME280;55563;52.416;13.548;2023-01-29T08:56:44;102121.44;;;-0.31;100.00
68594;BME280;55563;52.416;13.548;2023-01-29T08:58:45;102119.69;;;-0.30;100.00
68594;BME280;55563;52.416;13.548;2023-01-29T09:00:46;102117.75;;;-0.28;100.00
68594;BME280;55563;52.416;13.548;2023-01-29T09:02:46;102118.72;;;-0.29;100.00
68594;BME280;55563;52.416;13.548;2023-01-29T09:04:47;102109.22;;;-0.29;100.00
68594;BME280;55563;52.416;13.548;2023-01-29T09:06:48;102100.81;;;-0.23;100.00
68594;BME280;55563;52.416;13.548;2023-01-29T09:08:49;102103.41;;;-0.23;100.00
68594;BME280;55563;52.416;13.548;2023-01-29T09:10:50;102100.69;;;-0.21;100.00
68594;BME280;55563;52.416;13.548;2023-01-29T09:12:50;102103.78;;;-0.18;100.00
68594;BME280;55563;52.416;13.548;2023-01-29T09:14:51;102094.25;;;-0.17;100.00
68594;BME280;55563;52.416;13.548;2023-01-29T09:16:52;102095.22;;;-0.18;100.00
68594;BME280;55563;52.416;13.548;2023-01-29T09:18:52;102095.53;;;-0.21;100.00
68594;BME280;55563;52.416;13.548;2023-01-29T09:20:54;102093.78;;;-0.13;100.00
68594;BME280;55563;52.416;13.548;2023-01-29T09:22:56;102098.66;;;0.58;100.00
68594;BME280;55563;52.416;13.548;2023-01-29T09:24:58;102097.47;;;0.95;100.00
68594;BME280;55563;52.416;13.548;2023-01-29T09:26:59;102100.50;;;0.82;100.00
68594;BME280;55563;52.416;13.548;2023-01-29T09:29:00;102096.75;;;0.68;100.00
68594;BME280;55563;52.416;13.548;2023-01-29T09:31:01;102097.47;;;1.11;100.00
68594;BME280;55563;52.416;13.548;2023-01-29T09:33:03;102108.16;;;1.08;100.00
68594;BME280;55563;52.416;13.548;2023-01-29T09:35:04;102092.28;;;0.44;100.00
68594;BME280;55563;52.416;13.548;2023-01-29T09:37:05;102098.25;;;0.37;100.00
68594;BME280;55563;52.416;13.548;2023-01-29T09:39:06;102103.56;;;0.35;100.00
68594;BME280;55563;52.416;13.548;2023-01-29T09:43:52;102086.25;;;0.28;100.00
68594;BME280;55563;52.416;13.548;2023-01-29T09:45:59;102081.03;;;0.20;100.00
68594;BME280;55563;52.416;13.548;2023-01-29T09:48:02;102070.22;;;0.24;100.00
68594;BME280;55563;52.416;13.548;2023-01-29T09:50:18;102063.34;;;0.33;100.00
68594;BME280;55563;52.416;13.548;2023-01-29T09:52:25;102059.94;;;0.32;100.00
68594;BME280;55563;52.416;13.548;2023-01-29T09:54:34;102058.66;;;0.36;100.00
68594;BME280;55563;52.416;13.548;2023-01-29T09:56:41;102060.09;;;0.39;100.00
68594;BME280;55563;52.416;13.548;2023-01-29T09:58:44;102056.28;;;0.59;100.00
68594;BME280;55563;52.416;13.548;2023-01-29T10:01:24;102055.00;;;0.55;100.00
68594;BME280;55563;52.416;13.548;2023-01-29T10:06:04;102043.84;;;0.55;100.00
68594;BME280;55563;52.416;13.548;2023-01-29T10:10:49;102046.44;;;0.55;100.00
68594;BME280;55563;52.416;13.548;2023-01-29T10:12:58;102044.00;;;0.53;100.00
68594;BME280;55563;52.416;13.548;2023-01-29T10:15:46;102038.84;;;0.61;100.00
68594;BME280;55563;52.416;13.548;2023-01-29T10:17:51;102030.91;;;0.63;100.00
68594;BME280;55563;52.416;13.548;2023-01-29T10:22:42;102014.94;;;0.75;100.00
68594;BME280;55563;52.416;13.548;2023-01-29T10:24:54;102013.16;;;0.84;100.00
68594;BME280;55563;52.416;13.548;2023-01-29T10:26:57;102011.88;;;0.88;100.00
68594;BME280;55563;52.416;13.548;2023-01-29T10:29:00;102010.56;;;0.92;100.00
68594;BME280;55563;52.416;13.548;2023-01-29T10:31:10;102013.53;;;1.05;100.00
68594;BME280;55563;52.416;13.548;2023-01-29T10:33:18;102007.19;;;1.16;100.00
68594;BME280;55563;52.416;13.548;2023-01-29T10:35:26;102020.31;;;1.14;100.00
68594;BME280;55563;52.416;13.548;2023-01-29T10:37:36;102018.34;;;1.16;100.00
68594;BME280;55563;52.416;13.548;2023-01-29T10:39:39;102025.16;;;1.34;100.00
68594;BME280;55563;52.416;13.548;2023-01-29T10:44:04;102022.38;;;1.35;100.00
68594;BME280;55563;52.416;13.548;2023-01-29T10:51:39;102002.31;;;1.37;100.00
68594;BME280;55563;52.416;13.548;2023-01-29T10:54:01;101988.91;;;1.34;100.00
68594;BME280;55563;52.416;13.548;2023-01-29T10:58:43;101987.91;;;1.43;100.00
68594;BME280;55563;52.416;13.548;2023-01-29T11:00:47;101975.44;;;1.38;100.00
68594;BME280;55563;52.416;13.548;2023-01-29T11:02:49;101980.88;;;1.59;100.00
68594;BME280;55563;52.416;13.548;2023-01-29T11:04:50;101968.13;;;1.58;100.00
68594;BME280;55563;52.416;13.548;2023-01-29T11:06:51;101966.44;;;1.73;100.00
68594;BME280;55563;52.416;13.548;2023-01-29T11:11:19;101964.84;;;1.72;100.00
68594;BME280;55563;52.416;13.548;2023-01-29T11:13:28;101955.28;;;1.72;100.00
68594;BME280;55563;52.416;13.548;2023-01-29T11:15:32;101960.06;;;1.84;100.00
68594;BME280;55563;52.416;13.548;2023-01-29T11:17:34;101957.31;;;1.85;100.00
68594;BME280;55563;52.416;13.548;2023-01-29T11:19:40;101948.06;;;1.91;100.00
68594;BME280;55563;52.416;13.548;2023-01-29T11:21:58;101951.03;;;1.80;100.00
68594;BME280;55563;52.416;13.548;2023-01-29T11:24:06;101954.56;;;1.87;100.00
68594;BME280;55563;52.416;13.548;2023-01-29T11:26:10;101957.94;;;1.87;100.00
68594;BME280;55563;52.416;13.548;2023-01-29T11:28:12;101950.31;;;1.94;100.00